PWSweather.com
Personal Weather Stations
Station Observations
ZBYSOV
ZbysovCZ 66411

ZbysovCZ 66411

Lat: 49.1578064, Lon: 16.3474598

Elevation: 350

Station Type: Davis Vantage Pro 2

http://www.pocasizbysov.info/

High Low Average
Temperature 21.4°F-5.9°C 6.4°F-14.2°C 15.4°F-9.2°C
Dew Point 12.4°F-10.9°C 1.9°F-16.7°C 8.0°F-13.3°C
Winds 13.9 mph 22.4 kmh Calm Calm 6.0 mph E9.7 kmh E
Wind Gusts 18.0 mph29.0 kmh -- 10.0 mph16.1 kmh
Humidity 81% 62% 72%
Pressure 30.24 in1024.0 mb 29.91 in1012.9 mb -
Precipitation 0.00 in0.0 mm - -
Hour Temp Dew Point Humidity Winds Wind Gusts Pressure Precip Precip Rate Daily Precip Total
01:00 AM 9.9°F-12.3°C 3.9°F-15.6°C 76% 6.7 mph NE10.8 kmh NE 11.0 mph17.7 kmh 30.24 in1024.0 mb 0.00 in0.0 mm 0.00 in0.0 mm 0.00 in0.0 mm
03:00 AM 9.0°F-12.8°C 3.0°F-16.1°C 76% 3.2 mph ENE5.1 kmh ENE 6.0 mph9.7 kmh 30.21 in1023.0 mb 0.00 in0.0 mm 0.00 in0.0 mm 0.00 in0.0 mm
03:30 AM 8.2°F-13.2°C 2.6°F-16.3°C 77% Calm Calm -- 30.20 in1022.7 mb 0.00 in0.0 mm 0.00 in0.0 mm 0.00 in0.0 mm
04:00 AM 7.7°F-13.5°C 2.3°F-16.5°C 78% 1.9 mph NE3.1 kmh NE 6.0 mph9.7 kmh 30.19 in1022.4 mb 0.00 in0.0 mm 0.00 in0.0 mm 0.00 in0.0 mm
06:00 AM 7.5°F-13.6°C 2.7°F-16.3°C 80% 1.2 mph NE1.9 kmh NE 5.0 mph8.0 kmh 30.15 in1021.0 mb 0.00 in0.0 mm 0.00 in0.0 mm 0.00 in0.0 mm
06:30 AM 7.2°F-13.8°C 2.3°F-16.5°C 80% Calm Calm -- 30.16 in1021.3 mb 0.00 in0.0 mm 0.00 in0.0 mm 0.00 in0.0 mm
07:00 AM 6.4°F-14.2°C 1.9°F-16.7°C 81% 1.3 mph NE2.1 kmh NE 5.0 mph8.0 kmh 30.14 in1020.7 mb 0.00 in0.0 mm 0.00 in0.0 mm 0.00 in0.0 mm
09:00 AM 12.6°F-10.8°C 6.5°F-14.2°C 76% 8.9 mph ESE14.3 kmh ESE 14.0 mph22.5 kmh 30.12 in1020.0 mb 0.00 in0.0 mm 0.00 in0.0 mm 0.00 in0.0 mm
09:30 AM 14.9°F-9.5°C 8.2°F-13.2°C 74% 4.3 mph ESE6.9 kmh ESE 8.0 mph12.9 kmh 30.11 in1019.6 mb 0.00 in0.0 mm 0.00 in0.0 mm 0.00 in0.0 mm
10:00 AM 16.3°F-8.7°C 8.9°F-12.8°C 72% 9.8 mph E15.8 kmh E 13.0 mph20.9 kmh 30.10 in1019.3 mb 0.00 in0.0 mm 0.00 in0.0 mm 0.00 in0.0 mm
12:00 PM 20.7°F-6.3°C 10.5°F-11.9°C 64% 13.9 mph SE22.4 kmh SE 17.0 mph27.4 kmh 30.05 in1017.6 mb 0.00 in0.0 mm 0.00 in0.0 mm 0.00 in0.0 mm
12:30 PM 20.5°F-6.4°C 10.3°F-12.1°C 64% 10.8 mph ESE17.4 kmh ESE 13.0 mph20.9 kmh 30.04 in1017.3 mb 0.00 in0.0 mm 0.00 in0.0 mm 0.00 in0.0 mm
01:00 PM 21.4°F-5.9°C 10.8°F-11.8°C 63% 11.1 mph E17.9 kmh E 15.0 mph24.1 kmh 30.03 in1016.9 mb 0.00 in0.0 mm 0.00 in0.0 mm 0.00 in0.0 mm
03:00 PM 21.4°F-5.9°C 10.4°F-12.0°C 62% 6.2 mph ESE10.0 kmh ESE 10.0 mph16.1 kmh 29.98 in1015.2 mb 0.00 in0.0 mm 0.00 in0.0 mm 0.00 in0.0 mm
03:30 PM 21.4°F-5.9°C 10.4°F-12.0°C 62% 8.3 mph ESE13.4 kmh ESE 13.0 mph20.9 kmh 29.97 in1014.9 mb 0.00 in0.0 mm 0.00 in0.0 mm 0.00 in0.0 mm
04:00 PM 21.4°F-5.9°C 10.4°F-12.0°C 62% 12.4 mph SE20.0 kmh SE 18.0 mph29.0 kmh 29.96 in1014.6 mb 0.00 in0.0 mm 0.00 in0.0 mm 0.00 in0.0 mm
06:00 PM 20.1°F-6.6°C 11.0°F-11.7°C 67% 2.6 mph SE4.2 kmh SE 8.0 mph12.9 kmh 29.96 in1014.6 mb 0.00 in0.0 mm 0.00 in0.0 mm 0.00 in0.0 mm
06:30 PM 19.8°F-6.8°C 11.3°F-11.5°C 69% 10.3 mph SE16.6 kmh SE 15.0 mph24.1 kmh 29.95 in1014.2 mb 0.00 in0.0 mm 0.00 in0.0 mm 0.00 in0.0 mm
07:00 PM 19.2°F-7.1°C 11.7°F-11.3°C 72% 6.9 mph ESE11.1 kmh ESE 15.0 mph24.1 kmh 29.95 in1014.2 mb 0.00 in0.0 mm 0.00 in0.0 mm 0.00 in0.0 mm
09:00 PM 18.1°F-7.7°C 12.2°F-11.0°C 77% 3.2 mph E5.1 kmh E 9.0 mph14.5 kmh 29.93 in1013.5 mb 0.00 in0.0 mm 0.00 in0.0 mm 0.00 in0.0 mm
09:30 PM 17.8°F-7.9°C 12.1°F-11.1°C 78% 4.2 mph ESE6.8 kmh ESE 10.0 mph16.1 kmh 29.92 in1013.2 mb 0.00 in0.0 mm 0.00 in0.0 mm 0.00 in0.0 mm
10:00 PM 17.8°F-7.9°C 12.4°F-10.9°C 79% 1.7 mph SE2.7 kmh SE 8.0 mph12.9 kmh 29.91 in1012.9 mb 0.00 in0.0 mm 0.00 in0.0 mm 0.00 in0.0 mm